createdAt,value
2023-05-09T00:00:43.061Z,98490.42
2023-05-09T00:03:14.860Z,98501.41
2023-05-09T00:05:43.809Z,98501.81
2023-05-09T00:08:12.295Z,98500.34
2023-05-09T00:10:40.822Z,98499.61
2023-05-09T00:13:09.072Z,98501.58
2023-05-09T00:15:37.330Z,98500.67
2023-05-09T00:18:05.593Z,98499.77
2023-05-09T00:20:34.275Z,98497.73
2023-05-09T00:23:02.696Z,98495.38
2023-05-09T00:25:30.755Z,98498.30
2023-05-09T00:27:59.124Z,98499.20
2023-05-09T00:30:27.653Z,98499.28
2023-05-09T00:32:55.865Z,98503.06
2023-05-09T00:35:24.367Z,98501.27
2023-05-09T00:37:52.724Z,98500.69
2023-05-09T00:40:20.938Z,98502.16
2023-05-09T00:42:49.306Z,98499.09
2023-05-09T00:45:17.441Z,98498.19
2023-05-09T00:47:45.884Z,98497.50
2023-05-09T00:50:14.038Z,98492.48
2023-05-09T00:52:42.203Z,98492.84
2023-05-09T00:55:10.352Z,98492.44
2023-05-09T00:57:38.438Z,98500.83
2023-05-09T01:00:13.606Z,98495.48
2023-05-09T01:02:42.861Z,98496.42
2023-05-09T01:05:11.765Z,98494.66
2023-05-09T01:07:48.919Z,98499.76
2023-05-09T01:10:29.484Z,98498.40
2023-05-09T01:13:24.612Z,98499.52
2023-05-09T01:16:09.500Z,98500.95
2023-05-09T01:18:45.013Z,98503.09
2023-05-09T01:21:17.765Z,98506.63
2023-05-09T01:23:50.354Z,98501.03
2023-05-09T01:26:43.138Z,98497.73
2023-05-09T01:29:30.551Z,98502.35
2023-05-09T01:31:59.121Z,98502.77
2023-05-09T01:34:27.508Z,98502.55
2023-05-09T01:36:57.611Z,98501.44
2023-05-09T01:39:26.293Z,98503.30
2023-05-09T01:41:55.331Z,98505.49
2023-05-09T01:44:23.561Z,98503.59
2023-05-09T01:46:53.021Z,98504.22
2023-05-09T01:49:21.271Z,98498.45
2023-05-09T01:51:49.636Z,98496.69
2023-05-09T01:54:18.233Z,98494.93
2023-05-09T01:56:46.270Z,98490.04
2023-05-09T01:59:16.355Z,98486.58
2023-05-09T02:01:45.910Z,98485.76
2023-05-09T02:04:16.202Z,98484.69
2023-05-09T02:06:45.245Z,98486.32
2023-05-09T02:09:14.097Z,98486.83
2023-05-09T02:14:58.878Z,98484.86
2023-05-09T02:17:29.628Z,98490.91
2023-05-09T02:19:57.895Z,98491.14
2023-05-09T02:22:26.077Z,98489.80
2023-05-09T02:24:54.868Z,98490.73
2023-05-09T02:27:22.913Z,98491.09
2023-05-09T02:29:52.154Z,98488.86
2023-05-09T02:32:25.879Z,98484.77
2023-05-09T02:34:54.428Z,98486.94
2023-05-09T02:37:23.117Z,98486.70
2023-05-09T02:39:51.261Z,98485.98
2023-05-09T02:42:22.919Z,98487.25
2023-05-09T02:44:54.801Z,98486.18
2023-05-09T02:47:23.200Z,98479.96
2023-05-09T02:49:52.036Z,98478.31
2023-05-09T02:52:19.996Z,98479.10
2023-05-09T02:54:48.621Z,98482.54
2023-05-09T02:57:16.766Z,98482.62
2023-05-09T02:59:44.829Z,98485.45
2023-05-09T03:02:13.111Z,98490.10
2023-05-09T03:04:42.311Z,98492.27
2023-05-09T03:07:10.600Z,98491.77
2023-05-09T03:09:40.984Z,98495.52
2023-05-09T03:12:09.591Z,98495.52
2023-05-09T03:14:38.460Z,98494.33
2023-05-09T03:17:07.479Z,98499.39
2023-05-09T03:19:36.579Z,98497.74
2023-05-09T03:22:04.946Z,98502.02
2023-05-09T03:24:35.165Z,98507.80
2023-05-09T03:27:04.077Z,98511.48
2023-05-09T03:29:32.132Z,98514.33
2023-05-09T03:32:00.183Z,98516.52
2023-05-09T03:34:28.273Z,98520.54
2023-05-09T03:36:57.283Z,98520.85
2023-05-09T03:39:27.078Z,98525.67
2023-05-09T03:41:57.611Z,98524.39
2023-05-09T03:44:26.351Z,98525.07
2023-05-09T03:46:54.987Z,98526.20
2023-05-09T03:49:23.263Z,98525.94
2023-05-09T03:51:53.568Z,98525.93
2023-05-09T03:54:22.257Z,98530.23
2023-05-09T03:56:52.068Z,98530.63
2023-05-09T03:59:20.956Z,98532.66
2023-05-09T04:01:49.598Z,98533.20
2023-05-09T04:04:18.329Z,98541.80
2023-05-09T04:06:46.829Z,98541.95
2023-05-09T04:09:17.144Z,98547.56
2023-05-09T04:11:47.152Z,98549.67
2023-05-09T04:14:16.653Z,98548.40
2023-05-09T04:16:44.925Z,98547.95
2023-05-09T04:19:13.406Z,98545.69
2023-05-09T04:21:41.436Z,98549.87
2023-05-09T04:24:09.769Z,98547.77
2023-05-09T04:26:46.523Z,98546.41
2023-05-09T04:29:17.487Z,98546.54
2023-05-09T04:31:50.747Z,98547.14
2023-05-09T04:34:19.764Z,98548.10
2023-05-09T04:36:47.962Z,98551.07
2023-05-09T04:39:16.305Z,98548.86
2023-05-09T04:41:51.400Z,98551.20
2023-05-09T04:44:19.819Z,98548.17
2023-05-09T04:46:47.996Z,98549.77
2023-05-09T04:49:16.170Z,98547.33
2023-05-09T04:51:44.365Z,98549.06
2023-05-09T04:54:12.409Z,98550.70
2023-05-09T04:56:41.303Z,98552.77
2023-05-09T04:59:09.474Z,98559.70
2023-05-09T05:01:37.543Z,98563.63
2023-05-09T05:04:05.844Z,98565.09
2023-05-09T05:06:34.319Z,98565.74
2023-05-09T05:09:02.720Z,98564.20
2023-05-09T05:11:31.368Z,98568.98
2023-05-09T05:14:00.988Z,98575.87
2023-05-09T05:16:29.317Z,98573.92
2023-05-09T05:18:58.231Z,98575.50
2023-05-09T05:21:26.733Z,98582.67
2023-05-09T05:23:54.936Z,98586.63
2023-05-09T05:26:23.051Z,98578.30
2023-05-09T05:28:56.048Z,98584.33
2023-05-09T05:31:24.701Z,98586.20
2023-05-09T05:33:52.934Z,98583.86
2023-05-09T05:36:21.585Z,98586.33
2023-05-09T05:38:49.984Z,98591.48
2023-05-09T05:41:18.335Z,98588.96
2023-05-09T05:43:46.945Z,98601.08
2023-05-09T05:46:16.193Z,98596.09
2023-05-09T05:48:44.613Z,98594.92
2023-05-09T05:51:12.771Z,98594.68
2023-05-09T05:53:41.883Z,98594.52
2023-05-09T05:56:10.455Z,98593.27
2023-05-09T05:58:38.656Z,98589.84
2023-05-09T06:01:07.720Z,98587.95
2023-05-09T06:03:36.146Z,98585.82
2023-05-09T06:06:06.985Z,98589.83
2023-05-09T06:08:35.115Z,98589.88
2023-05-09T06:11:03.374Z,98588.23
2023-05-09T06:13:31.456Z,98589.24
2023-05-09T06:16:14.959Z,98584.30
2023-05-09T06:18:49.397Z,98585.52
2023-05-09T06:21:17.381Z,98583.84
2023-05-09T06:26:17.749Z,98582.05
2023-05-09T06:28:45.981Z,98583.03
2023-05-09T06:31:14.308Z,98581.50
2023-05-09T06:33:42.445Z,98570.89
2023-05-09T06:36:11.056Z,98571.75
2023-05-09T06:38:39.198Z,98570.61
2023-05-09T06:41:07.385Z,98565.21
2023-05-09T06:43:35.654Z,98573.39
2023-05-09T06:46:04.145Z,98568.35
2023-05-09T06:48:32.529Z,98573.27
2023-05-09T06:51:00.667Z,98568.77
2023-05-09T06:53:29.089Z,98563.83
2023-05-09T06:55:57.219Z,98562.56
2023-05-09T06:58:25.599Z,98551.10
2023-05-09T07:00:54.298Z,98549.33
2023-05-09T07:03:22.460Z,98555.52
2023-05-09T07:05:51.961Z,98552.23
2023-05-09T07:08:20.240Z,98552.88
2023-05-09T07:10:48.309Z,98550.95
2023-05-09T07:13:16.531Z,98557.23
2023-05-09T07:15:45.053Z,98556.61
2023-05-09T07:18:13.377Z,98557.52
2023-05-09T07:20:41.823Z,98558.84
2023-05-09T07:23:09.928Z,98560.50
2023-05-09T07:25:38.578Z,98560.38
2023-05-09T07:28:07.069Z,98559.19
2023-05-09T07:30:35.029Z,98554.28
2023-05-09T07:33:03.366Z,98554.94
2023-05-09T07:35:31.732Z,98553.54
2023-05-09T07:37:59.755Z,98552.10
2023-05-09T07:40:27.930Z,98551.31
2023-05-09T07:42:57.146Z,98550.13
2023-05-09T07:45:25.396Z,98552.12
2023-05-09T07:47:53.828Z,98547.33
2023-05-09T07:50:23.484Z,98548.56
2023-05-09T07:52:53.018Z,98542.80
2023-05-09T07:55:21.320Z,98537.85
2023-05-09T07:57:49.483Z,98541.84
2023-05-09T08:00:19.857Z,98545.41
2023-05-09T08:02:47.987Z,98545.57
2023-05-09T08:05:16.762Z,98551.30
2023-05-09T08:07:45.656Z,98555.36
2023-05-09T08:10:13.781Z,98553.85
2023-05-09T08:12:41.987Z,98557.31
2023-05-09T08:15:10.743Z,98566.98
2023-05-09T08:17:39.014Z,98563.78
2023-05-09T08:20:09.159Z,98568.19
2023-05-09T08:22:39.356Z,98565.19
2023-05-09T08:25:08.666Z,98562.88
2023-05-09T08:27:37.346Z,98559.66
2023-05-09T08:30:06.691Z,98560.08
2023-05-09T08:32:34.749Z,98559.42
2023-05-09T08:35:02.923Z,98558.92
2023-05-09T08:37:31.366Z,98555.38
2023-05-09T08:39:59.993Z,98554.77
2023-05-09T08:42:28.155Z,98545.30
2023-05-09T08:44:56.300Z,98549.33
2023-05-09T08:47:24.403Z,98552.42
2023-05-09T08:49:52.947Z,98550.83
2023-05-09T08:52:21.549Z,98545.39
2023-05-09T08:54:49.636Z,98539.12
2023-05-09T08:57:17.695Z,98541.95
2023-05-09T08:59:46.674Z,98541.45
2023-05-09T09:02:15.287Z,98541.30
2023-05-09T09:04:45.324Z,98534.75
2023-05-09T09:07:14.182Z,98533.14
2023-05-09T09:09:46.569Z,98531.40
2023-05-09T09:12:16.040Z,98532.35
2023-05-09T09:14:49.749Z,98533.77
2023-05-09T09:17:20.106Z,98534.79
2023-05-09T09:19:49.874Z,98538.44
2023-05-09T09:22:19.266Z,98543.08
2023-05-09T09:24:47.472Z,98531.68
2023-05-09T09:27:15.628Z,98534.48
2023-05-09T09:29:43.887Z,98541.11
2023-05-09T09:32:12.168Z,98538.02
2023-05-09T09:34:40.540Z,98537.42
2023-05-09T09:37:09.123Z,98536.60
2023-05-09T09:39:37.401Z,98541.13
2023-05-09T09:42:12.028Z,98539.31
2023-05-09T09:44:40.226Z,98541.91
2023-05-09T09:47:10.007Z,98538.58
2023-05-09T09:49:38.082Z,98539.20
2023-05-09T09:52:06.093Z,98532.36
2023-05-09T09:54:34.164Z,98535.73
2023-05-09T09:57:02.204Z,98534.81
2023-05-09T09:59:30.156Z,98539.81
2023-05-09T10:02:12.767Z,98536.52
2023-05-09T10:04:42.906Z,98530.38
2023-05-09T10:07:14.666Z,98536.17
2023-05-09T10:09:44.279Z,98535.60
2023-05-09T10:12:15.000Z,98540.41
2023-05-09T10:14:43.056Z,98545.23
2023-05-09T10:17:12.722Z,98552.48
2023-05-09T10:19:44.367Z,98551.02
2023-05-09T10:22:12.829Z,98548.18
2023-05-09T10:24:46.399Z,98543.64
2023-05-09T10:27:14.332Z,98542.95
2023-05-09T10:29:46.224Z,98541.54
2023-05-09T10:32:48.571Z,98537.92
2023-05-09T10:35:17.801Z,98538.34
2023-05-09T10:37:46.169Z,98534.51
2023-05-09T10:40:15.788Z,98533.86
2023-05-09T10:42:44.462Z,98538.15
2023-05-09T10:45:13.271Z,98534.58
2023-05-09T10:47:42.691Z,98534.33
2023-05-09T10:50:15.733Z,98537.58
2023-05-09T10:53:09.420Z,98537.05
2023-05-09T10:55:55.606Z,98537.94
2023-05-09T10:58:27.494Z,98537.05
2023-05-09T11:00:57.462Z,98534.23
2023-05-09T11:03:26.983Z,98531.15
2023-05-09T11:05:58.654Z,98530.73
2023-05-09T11:08:26.995Z,98530.50
2023-05-09T11:10:56.624Z,98534.38
2023-05-09T11:13:25.903Z,98537.21
2023-05-09T11:15:54.317Z,98538.42
2023-05-09T11:18:22.377Z,98539.66
2023-05-09T11:20:51.984Z,98534.06
2023-05-09T11:23:20.459Z,98537.11
2023-05-09T11:25:49.467Z,98538.59
2023-05-09T11:28:30.506Z,98537.90
2023-05-09T11:31:16.060Z,98539.21
2023-05-09T11:33:45.782Z,98533.70
2023-05-09T11:36:20.719Z,98538.56
2023-05-09T11:38:49.132Z,98539.92
2023-05-09T11:41:17.607Z,98548.23
2023-05-09T11:43:45.777Z,98546.77
2023-05-09T11:46:13.818Z,98544.48
2023-05-09T11:48:42.430Z,98539.41
2023-05-09T11:51:18.515Z,98540.11
2023-05-09T11:53:50.073Z,98541.88
2023-05-09T11:56:19.343Z,98545.59
2023-05-09T11:58:50.987Z,98546.00
2023-05-09T12:01:19.606Z,98538.77
2023-05-09T12:03:47.868Z,98534.80
2023-05-09T12:06:17.885Z,98535.77
2023-05-09T12:08:46.556Z,98534.13
2023-05-09T12:11:15.334Z,98537.98
2023-05-09T12:13:51.034Z,98536.27
2023-05-09T12:16:20.097Z,98531.11
2023-05-09T12:18:52.845Z,98525.11
2023-05-09T12:21:21.848Z,98525.52
2023-05-09T12:23:51.752Z,98519.84
2023-05-09T12:26:22.693Z,98517.15
2023-05-09T12:28:50.681Z,98514.45
2023-05-09T12:31:18.829Z,98511.68
2023-05-09T12:33:47.142Z,98510.24
2023-05-09T12:36:16.442Z,98509.46
2023-05-09T12:38:54.860Z,98513.98
2023-05-09T12:41:35.460Z,98510.48
2023-05-09T12:44:08.013Z,98509.42
2023-05-09T12:46:37.541Z,98511.23
2023-05-09T12:49:06.277Z,98514.69
2023-05-09T12:51:35.102Z,98510.48
2023-05-09T12:54:04.733Z,98508.19
2023-05-09T12:56:34.474Z,98507.08
2023-05-09T12:59:03.068Z,98506.95
2023-05-09T13:01:31.413Z,98503.20
2023-05-09T13:04:06.859Z,98505.02
2023-05-09T13:06:36.061Z,98505.09
2023-05-09T13:09:06.643Z,98504.92
2023-05-09T13:11:37.892Z,98503.08
2023-05-09T13:14:06.274Z,98501.06
2023-05-09T13:16:35.039Z,98499.09
2023-05-09T13:19:05.575Z,98504.20
2023-05-09T13:21:34.478Z,98497.67
2023-05-09T13:24:03.843Z,98495.42
2023-05-09T13:26:32.243Z,98489.45
2023-05-09T13:29:00.487Z,98487.10
2023-05-09T13:31:29.020Z,98485.79
2023-05-09T13:33:57.239Z,98487.32
2023-05-09T13:36:25.416Z,98480.69
2023-05-09T13:38:53.487Z,98480.64
2023-05-09T13:41:23.963Z,98480.89
2023-05-09T13:43:52.820Z,98484.48
2023-05-09T13:46:21.214Z,98486.00
2023-05-09T13:48:49.439Z,98486.54
2023-05-09T13:51:17.576Z,98487.02
2023-05-09T13:53:45.829Z,98487.77
2023-05-09T13:56:14.113Z,98491.23
2023-05-09T13:58:42.568Z,98494.20
2023-05-09T14:01:10.713Z,98493.79
2023-05-09T14:03:39.008Z,98496.13
2023-05-09T14:06:09.676Z,98498.39
2023-05-09T14:08:37.952Z,98499.88
2023-05-09T14:11:07.783Z,98494.57
2023-05-09T14:13:35.801Z,98494.20
2023-05-09T14:16:05.437Z,98492.42
2023-05-09T14:18:33.622Z,98493.45
2023-05-09T14:21:01.988Z,98488.84
2023-05-09T14:23:30.137Z,98487.12
2023-05-09T14:25:58.620Z,98491.19
2023-05-09T14:28:27.091Z,98489.79
2023-05-09T14:30:55.464Z,98490.60
2023-05-09T14:33:24.462Z,98485.30
2023-05-09T14:35:52.547Z,98484.73
2023-05-09T14:38:21.644Z,98483.25
2023-05-09T14:40:49.791Z,98481.23
2023-05-09T14:43:18.483Z,98479.54
2023-05-09T14:45:46.550Z,98478.38
2023-05-09T14:48:16.235Z,98475.58
2023-05-09T14:50:44.677Z,98474.21
2023-05-09T14:53:13.116Z,98470.84
2023-05-09T14:55:41.290Z,98468.58
2023-05-09T14:58:09.679Z,98470.76
2023-05-09T15:00:38.779Z,98474.17
2023-05-09T15:03:06.886Z,98478.70
2023-05-09T15:05:35.108Z,98479.48
2023-05-09T15:08:04.103Z,98474.55
2023-05-09T15:10:33.118Z,98482.95
2023-05-09T15:13:02.306Z,98484.27
2023-05-09T15:15:32.113Z,98488.17
2023-05-09T15:18:02.411Z,98489.59
2023-05-09T15:20:30.395Z,98490.70
2023-05-09T15:23:00.286Z,98484.73
2023-05-09T15:25:28.733Z,98485.42
2023-05-09T15:27:56.966Z,98486.98
2023-05-09T15:30:25.650Z,98485.04
2023-05-09T15:32:54.391Z,98483.29
2023-05-09T15:35:22.614Z,98485.01
2023-05-09T15:37:50.798Z,98482.54
2023-05-09T15:40:18.905Z,98474.96
2023-05-09T15:42:48.671Z,98475.00
2023-05-09T15:45:17.755Z,98474.80
2023-05-09T15:47:45.978Z,98469.64
2023-05-09T15:50:14.680Z,98473.81
2023-05-09T15:52:43.414Z,98473.18
2023-05-09T15:55:13.285Z,98476.07
2023-05-09T15:57:41.393Z,98474.99
2023-05-09T16:00:11.133Z,98476.39
2023-05-09T16:02:44.376Z,98478.04
2023-05-09T16:05:13.186Z,98480.23
2023-05-09T16:07:43.606Z,98478.73
2023-05-09T16:10:12.239Z,98483.19
2023-05-09T16:12:40.382Z,98484.50
2023-05-09T16:15:09.150Z,98483.64
2023-05-09T16:17:37.648Z,98485.37
2023-05-09T16:20:06.798Z,98483.52
2023-05-09T16:22:35.001Z,98487.44
2023-05-09T16:25:03.110Z,98479.60
2023-05-09T16:27:31.152Z,98485.02
2023-05-09T16:29:59.519Z,98482.53
2023-05-09T16:32:28.009Z,98485.65
2023-05-09T16:34:56.295Z,98481.63
2023-05-09T16:37:24.487Z,98485.33
2023-05-09T16:39:52.733Z,98487.05
2023-05-09T16:42:21.300Z,98481.38
2023-05-09T16:44:49.832Z,98482.95
2023-05-09T16:47:18.158Z,98483.94
2023-05-09T16:49:46.691Z,98486.11
2023-05-09T16:52:15.861Z,98487.19
2023-05-09T16:54:44.053Z,98490.10
2023-05-09T16:57:12.389Z,98493.85
2023-05-09T16:59:40.776Z,98494.15
2023-05-09T17:02:08.948Z,98492.45
2023-05-09T17:04:37.894Z,98494.84
2023-05-09T17:07:07.064Z,98497.42
2023-05-09T17:09:35.337Z,98497.45
2023-05-09T17:12:03.623Z,98500.79
2023-05-09T17:14:31.602Z,98502.86
2023-05-09T17:17:00.445Z,98506.75
2023-05-09T17:19:28.548Z,98507.32
2023-05-09T17:21:58.967Z,98505.06
2023-05-09T17:24:26.979Z,98503.70
2023-05-09T17:26:56.226Z,98504.41
2023-05-09T17:29:24.485Z,98503.64
2023-05-09T17:31:52.810Z,98501.95
2023-05-09T17:34:21.419Z,98499.64
2023-05-09T17:36:49.575Z,98502.03
2023-05-09T17:39:17.817Z,98498.28
2023-05-09T17:41:45.967Z,98499.30
2023-05-09T17:44:14.111Z,98499.52
2023-05-09T17:46:42.329Z,98502.46
2023-05-09T17:49:11.360Z,98505.28
2023-05-09T17:51:39.478Z,98507.97
2023-05-09T17:54:07.587Z,98513.38
2023-05-09T17:56:35.792Z,98512.96
2023-05-09T17:59:03.797Z,98517.73
2023-05-09T18:01:31.781Z,98519.27
2023-05-09T18:03:59.959Z,98521.38
2023-05-09T18:06:29.080Z,98522.08
2023-05-09T18:08:57.215Z,98526.14
2023-05-09T18:11:26.327Z,98528.30
2023-05-09T18:13:54.271Z,98528.41
2023-05-09T18:16:22.455Z,98535.58
2023-05-09T18:18:50.744Z,98537.23
2023-05-09T18:21:18.709Z,98536.94
2023-05-09T18:23:46.746Z,98537.76
2023-05-09T18:26:14.785Z,98541.07
2023-05-09T18:28:42.835Z,98540.16
2023-05-09T18:31:12.426Z,98539.70
2023-05-09T18:33:40.604Z,98544.48
2023-05-09T18:36:10.285Z,98544.36
2023-05-09T18:38:38.826Z,98543.58
2023-05-09T18:41:08.032Z,98543.86
2023-05-09T18:43:38.749Z,98544.23
2023-05-09T18:46:07.619Z,98548.77
2023-05-09T18:48:35.822Z,98548.43
2023-05-09T18:51:04.600Z,98549.27
2023-05-09T18:53:32.922Z,98552.31
2023-05-09T18:56:01.469Z,98549.58
2023-05-09T18:58:29.618Z,98549.30
2023-05-09T19:00:57.643Z,98554.86
2023-05-09T19:03:25.719Z,98551.35
2023-05-09T19:05:54.468Z,98551.52
2023-05-09T19:08:22.651Z,98552.39
2023-05-09T19:10:51.038Z,98555.60
2023-05-09T19:13:19.069Z,98553.05
2023-05-09T19:15:47.507Z,98552.76
2023-05-09T19:18:15.452Z,98551.27
2023-05-09T19:20:43.409Z,98554.13
2023-05-09T19:23:12.209Z,98551.73
2023-05-09T19:25:40.803Z,98552.89
2023-05-09T19:28:08.663Z,98552.97
2023-05-09T19:30:36.629Z,98551.89
2023-05-09T19:33:04.647Z,98551.31
2023-05-09T19:35:32.593Z,98547.56
2023-05-09T19:38:00.583Z,98547.52
2023-05-09T19:40:28.810Z,98546.16
2023-05-09T19:42:56.820Z,98543.52
2023-05-09T19:45:25.286Z,98538.29
2023-05-09T19:47:54.917Z,98542.17
2023-05-09T19:50:23.345Z,98540.71
2023-05-09T19:52:51.696Z,98546.95
2023-05-09T19:55:19.614Z,98546.27
2023-05-09T19:57:48.627Z,98547.70
2023-05-09T20:00:18.255Z,98546.69
2023-05-09T20:02:47.139Z,98547.55
2023-05-09T20:05:15.245Z,98546.44
2023-05-09T20:07:43.423Z,98544.30
2023-05-09T20:10:12.823Z,98548.51
2023-05-09T20:12:41.659Z,98545.94
2023-05-09T20:15:10.129Z,98546.80
2023-05-09T20:17:38.188Z,98545.86
2023-05-09T20:20:06.777Z,98544.27
2023-05-09T20:22:34.686Z,98543.98
2023-05-09T20:25:02.794Z,98544.27
2023-05-09T20:27:31.287Z,98545.00
2023-05-09T20:29:59.451Z,98544.02
2023-05-09T20:32:28.135Z,98545.95
2023-05-09T20:34:56.311Z,98543.31
2023-05-09T20:37:24.286Z,98543.72
2023-05-09T20:39:52.409Z,98541.02
2023-05-09T20:42:20.379Z,98539.86
2023-05-09T20:44:49.744Z,98539.80
2023-05-09T20:47:18.031Z,98537.54
2023-05-09T20:49:46.092Z,98538.86
2023-05-09T20:52:14.206Z,98537.22
2023-05-09T20:54:42.423Z,98532.85
2023-05-09T20:57:11.330Z,98533.55
2023-05-09T20:59:39.809Z,98532.36
2023-05-09T21:02:08.482Z,98530.66
2023-05-09T21:04:36.595Z,98529.98
2023-05-09T21:07:04.545Z,98529.52
2023-05-09T21:09:32.514Z,98529.30
2023-05-09T21:12:00.854Z,98528.15
2023-05-09T21:14:28.887Z,98526.30
2023-05-09T21:16:58.453Z,98523.86
2023-05-09T21:19:26.601Z,98523.04
2023-05-09T21:21:54.848Z,98521.72
2023-05-09T21:24:22.826Z,98520.69
2023-05-09T21:26:50.968Z,98519.94
2023-05-09T21:29:18.861Z,98518.58
2023-05-09T21:31:46.829Z,98522.79
2023-05-09T21:34:14.811Z,98519.60
2023-05-09T21:36:42.810Z,98514.45
2023-05-09T21:39:10.986Z,98512.42
2023-05-09T21:41:39.556Z,98509.98
2023-05-09T21:44:07.853Z,98506.89
2023-05-09T21:46:36.494Z,98505.90
2023-05-09T21:49:04.610Z,98502.34
2023-05-09T21:51:33.646Z,98502.30
2023-05-09T21:54:01.624Z,98503.04
2023-05-09T21:56:29.704Z,98498.00
2023-05-09T21:58:57.710Z,98499.95
2023-05-09T22:01:25.712Z,98495.04
2023-05-09T22:03:54.089Z,98495.95
2023-05-09T22:06:22.129Z,98496.02
2023-05-09T22:08:51.216Z,98496.36
2023-05-09T22:11:19.333Z,98497.42
2023-05-09T22:13:47.412Z,98499.58
2023-05-09T22:16:15.366Z,98495.56
2023-05-09T22:18:43.429Z,98492.39
2023-05-09T22:21:11.756Z,98491.41
2023-05-09T22:23:39.687Z,98493.17
2023-05-09T22:26:08.083Z,98489.30
2023-05-09T22:28:36.954Z,98484.68
2023-05-09T22:31:06.701Z,98481.76
2023-05-09T22:33:34.813Z,98481.55
2023-05-09T22:36:02.762Z,98477.92
2023-05-09T22:38:30.666Z,98478.95
2023-05-09T22:40:58.659Z,98475.02
2023-05-09T22:43:28.856Z,98473.03
2023-05-09T22:46:04.971Z,98475.34
2023-05-09T22:48:32.919Z,98473.65
2023-05-09T22:51:00.893Z,98474.64
2023-05-09T22:53:29.146Z,98471.00
2023-05-09T22:55:57.313Z,98470.26
2023-05-09T22:58:26.463Z,98470.46
2023-05-09T23:00:54.588Z,98466.55
2023-05-09T23:03:23.234Z,98458.83
2023-05-09T23:05:51.448Z,98457.20
2023-05-09T23:08:19.761Z,98454.10
2023-05-09T23:10:47.875Z,98453.36
2023-05-09T23:13:16.086Z,98446.52
2023-05-09T23:15:44.334Z,98447.30
2023-05-09T23:18:12.542Z,98443.25
2023-05-09T23:20:40.446Z,98441.20
2023-05-09T23:23:08.384Z,98436.34
2023-05-09T23:25:36.630Z,98436.46
2023-05-09T23:28:04.840Z,98434.05
2023-05-09T23:30:32.843Z,98433.21
2023-05-09T23:33:00.749Z,98431.32
2023-05-09T23:35:28.768Z,98430.00
2023-05-09T23:37:56.794Z,98427.08
2023-05-09T23:40:25.383Z,98426.45
2023-05-09T23:42:53.320Z,98421.09
2023-05-09T23:45:21.391Z,98418.79
2023-05-09T23:47:49.492Z,98414.92
2023-05-09T23:50:17.697Z,98414.09
2023-05-09T23:52:49.321Z,98415.30
2023-05-09T23:55:17.937Z,98412.52
2023-05-09T23:57:46.068Z,98410.47
